sensor_id;sensor_type;location;lat;lon;timestamp;P1;durP1;ratioP1;P2;durP2;ratioP2
63298;SDS011;54535;52.138;5.398;2022-07-23T00:00:14;2.97;;;2.17;;
63298;SDS011;54535;52.138;5.398;2022-07-23T00:05:09;4.93;;;2.20;;
63298;SDS011;54535;52.138;5.398;2022-07-23T00:07:36;4.18;;;2.25;;
63298;SDS011;54535;52.138;5.398;2022-07-23T00:10:04;3.83;;;2.38;;
63298;SDS011;54535;52.138;5.398;2022-07-23T00:12:31;4.32;;;2.45;;
63298;SDS011;54535;52.138;5.398;2022-07-23T00:14:58;5.07;;;2.40;;
63298;SDS011;54535;52.138;5.398;2022-07-23T00:17:25;5.45;;;2.30;;
63298;SDS011;54535;52.138;5.398;2022-07-23T00:19:51;3.93;;;2.40;;
63298;SDS011;54535;52.138;5.398;2022-07-23T00:22:19;5.82;;;2.40;;
63298;SDS011;54535;52.138;5.398;2022-07-23T00:24:46;4.87;;;2.50;;
63298;SDS011;54535;52.138;5.398;2022-07-23T00:27:33;4.60;;;2.40;;
63298;SDS011;54535;52.138;5.398;2022-07-23T00:29:59;2.93;;;2.27;;
63298;SDS011;54535;52.138;5.398;2022-07-23T00:32:26;4.22;;;2.60;;
63298;SDS011;54535;52.138;5.398;2022-07-23T00:35:13;4.38;;;2.67;;
63298;SDS011;54535;52.138;5.398;2022-07-23T00:37:40;3.58;;;2.35;;
63298;SDS011;54535;52.138;5.398;2022-07-23T00:40:08;4.03;;;2.67;;
63298;SDS011;54535;52.138;5.398;2022-07-23T00:42:36;4.93;;;2.78;;
63298;SDS011;54535;52.138;5.398;2022-07-23T00:45:03;4.55;;;2.75;;
63298;SDS011;54535;52.138;5.398;2022-07-23T00:49:57;4.13;;;2.45;;
63298;SDS011;54535;52.138;5.398;2022-07-23T00:52:24;4.20;;;2.75;;
63298;SDS011;54535;52.138;5.398;2022-07-23T00:54:51;5.60;;;2.92;;
63298;SDS011;54535;52.138;5.398;2022-07-23T00:57:18;6.97;;;3.20;;
63298;SDS011;54535;52.138;5.398;2022-07-23T00:59:50;4.57;;;2.90;;
63298;SDS011;54535;52.138;5.398;2022-07-23T01:02:17;6.68;;;3.17;;
63298;SDS011;54535;52.138;5.398;2022-07-23T01:04:44;5.15;;;3.47;;
63298;SDS011;54535;52.138;5.398;2022-07-23T01:07:11;5.88;;;3.58;;
63298;SDS011;54535;52.138;5.398;2022-07-23T01:09:38;4.80;;;3.30;;
63298;SDS011;54535;52.138;5.398;2022-07-23T01:12:05;6.30;;;3.80;;
63298;SDS011;54535;52.138;5.398;2022-07-23T01:14:33;6.82;;;4.20;;
63298;SDS011;54535;52.138;5.398;2022-07-23T01:17:00;7.72;;;4.30;;
63298;SDS011;54535;52.138;5.398;2022-07-23T01:19:27;6.05;;;4.07;;
63298;SDS011;54535;52.138;5.398;2022-07-23T01:21:54;8.25;;;4.30;;
63298;SDS011;54535;52.138;5.398;2022-07-23T01:24:24;7.95;;;4.75;;
63298;SDS011;54535;52.138;5.398;2022-07-23T01:27:05;8.32;;;4.68;;
63298;SDS011;54535;52.138;5.398;2022-07-23T01:29:35;8.02;;;4.35;;
63298;SDS011;54535;52.138;5.398;2022-07-23T01:32:06;6.22;;;4.40;;
63298;SDS011;54535;52.138;5.398;2022-07-23T01:34:33;6.28;;;4.28;;
63298;SDS011;54535;52.138;5.398;2022-07-23T01:37:01;8.10;;;4.72;;
63298;SDS011;54535;52.138;5.398;2022-07-23T01:39:28;8.10;;;4.80;;
63298;SDS011;54535;52.138;5.398;2022-07-23T01:41:56;9.43;;;4.40;;
63298;SDS011;54535;52.138;5.398;2022-07-23T01:44:24;8.43;;;4.55;;
63298;SDS011;54535;52.138;5.398;2022-07-23T01:46:51;9.38;;;4.90;;
63298;SDS011;54535;52.138;5.398;2022-07-23T01:49:20;7.57;;;4.63;;
63298;SDS011;54535;52.138;5.398;2022-07-23T01:51:58;6.20;;;4.55;;
63298;SDS011;54535;52.138;5.398;2022-07-23T01:54:36;6.43;;;4.43;;
63298;SDS011;54535;52.138;5.398;2022-07-23T01:57:06;7.93;;;4.80;;
63298;SDS011;54535;52.138;5.398;2022-07-23T01:59:33;9.18;;;4.82;;
63298;SDS011;54535;52.138;5.398;2022-07-23T02:02:01;7.03;;;4.50;;
63298;SDS011;54535;52.138;5.398;2022-07-23T02:04:30;6.72;;;4.68;;
63298;SDS011;54535;52.138;5.398;2022-07-23T02:06:58;8.55;;;5.03;;
63298;SDS011;54535;52.138;5.398;2022-07-23T02:09:26;6.75;;;4.47;;
63298;SDS011;54535;52.138;5.398;2022-07-23T02:11:52;7.17;;;4.77;;
63298;SDS011;54535;52.138;5.398;2022-07-23T02:14:19;7.07;;;4.77;;
63298;SDS011;54535;52.138;5.398;2022-07-23T02:16:46;8.53;;;4.50;;
63298;SDS011;54535;52.138;5.398;2022-07-23T02:19:13;6.68;;;4.60;;
63298;SDS011;54535;52.138;5.398;2022-07-23T02:21:40;8.23;;;4.88;;
63298;SDS011;54535;52.138;5.398;2022-07-23T02:24:07;6.25;;;4.10;;
63298;SDS011;54535;52.138;5.398;2022-07-23T02:26:34;7.90;;;4.70;;
63298;SDS011;54535;52.138;5.398;2022-07-23T02:29:04;7.00;;;4.55;;
63298;SDS011;54535;52.138;5.398;2022-07-23T02:31:31;8.55;;;4.38;;
63298;SDS011;54535;52.138;5.398;2022-07-23T02:33:58;7.72;;;4.80;;
63298;SDS011;54535;52.138;5.398;2022-07-23T02:36:26;7.00;;;4.13;;
63298;SDS011;54535;52.138;5.398;2022-07-23T02:38:53;7.00;;;3.97;;
63298;SDS011;54535;52.138;5.398;2022-07-23T02:41:20;6.53;;;3.93;;
63298;SDS011;54535;52.138;5.398;2022-07-23T02:43:47;6.47;;;3.80;;
63298;SDS011;54535;52.138;5.398;2022-07-23T02:46:14;5.82;;;4.00;;
63298;SDS011;54535;52.138;5.398;2022-07-23T02:48:42;7.20;;;4.22;;
63298;SDS011;54535;52.138;5.398;2022-07-23T02:51:09;5.20;;;3.83;;
63298;SDS011;54535;52.138;5.398;2022-07-23T02:53:44;9.15;;;4.25;;
63298;SDS011;54535;52.138;5.398;2022-07-23T02:56:11;4.83;;;3.63;;
63298;SDS011;54535;52.138;5.398;2022-07-23T02:58:38;8.53;;;4.00;;
63298;SDS011;54535;52.138;5.398;2022-07-23T03:01:04;6.40;;;3.75;;
63298;SDS011;54535;52.138;5.398;2022-07-23T03:03:31;7.97;;;3.83;;
63298;SDS011;54535;52.138;5.398;2022-07-23T03:05:59;6.35;;;3.58;;
63298;SDS011;54535;52.138;5.398;2022-07-23T03:08:26;6.60;;;3.75;;
63298;SDS011;54535;52.138;5.398;2022-07-23T03:10:53;5.32;;;3.45;;
63298;SDS011;54535;52.138;5.398;2022-07-23T03:13:20;5.70;;;3.37;;
63298;SDS011;54535;52.138;5.398;2022-07-23T03:15:47;6.10;;;3.67;;
63298;SDS011;54535;52.138;5.398;2022-07-23T03:18:14;6.10;;;3.20;;
63298;SDS011;54535;52.138;5.398;2022-07-23T03:20:40;6.63;;;3.80;;
63298;SDS011;54535;52.138;5.398;2022-07-23T03:25:36;6.10;;;3.45;;
63298;SDS011;54535;52.138;5.398;2022-07-23T03:28:03;4.60;;;3.47;;
63298;SDS011;54535;52.138;5.398;2022-07-23T03:30:30;6.05;;;3.60;;
63298;SDS011;54535;52.138;5.398;2022-07-23T03:32:56;5.13;;;3.70;;
63298;SDS011;54535;52.138;5.398;2022-07-23T03:35:23;5.78;;;3.72;;
63298;SDS011;54535;52.138;5.398;2022-07-23T03:38:16;6.50;;;4.15;;
63298;SDS011;54535;52.138;5.398;2022-07-23T03:40:44;7.25;;;3.90;;
63298;SDS011;54535;52.138;5.398;2022-07-23T03:43:11;6.93;;;4.10;;
63298;SDS011;54535;52.138;5.398;2022-07-23T03:45:38;5.40;;;3.90;;
63298;SDS011;54535;52.138;5.398;2022-07-23T03:48:05;6.25;;;3.83;;
63298;SDS011;54535;52.138;5.398;2022-07-23T03:50:32;5.90;;;3.80;;
63298;SDS011;54535;52.138;5.398;2022-07-23T03:53:00;6.93;;;4.00;;
63298;SDS011;54535;52.138;5.398;2022-07-23T03:55:27;6.00;;;3.83;;
63298;SDS011;54535;52.138;5.398;2022-07-23T03:57:55;6.15;;;4.03;;
63298;SDS011;54535;52.138;5.398;2022-07-23T04:02:50;6.78;;;4.03;;
63298;SDS011;54535;52.138;5.398;2022-07-23T04:05:17;6.05;;;3.80;;
63298;SDS011;54535;52.138;5.398;2022-07-23T04:07:48;5.70;;;3.65;;
63298;SDS011;54535;52.138;5.398;2022-07-23T04:10:14;6.80;;;3.97;;
63298;SDS011;54535;52.138;5.398;2022-07-23T04:12:41;6.00;;;4.00;;
63298;SDS011;54535;52.138;5.398;2022-07-23T04:15:09;5.03;;;3.55;;
63298;SDS011;54535;52.138;5.398;2022-07-23T04:17:36;5.15;;;3.97;;
63298;SDS011;54535;52.138;5.398;2022-07-23T04:20:03;5.35;;;4.00;;
63298;SDS011;54535;52.138;5.398;2022-07-23T04:22:36;6.47;;;3.90;;
63298;SDS011;54535;52.138;5.398;2022-07-23T04:25:03;4.80;;;3.40;;
63298;SDS011;54535;52.138;5.398;2022-07-23T04:27:30;5.40;;;4.07;;
63298;SDS011;54535;52.138;5.398;2022-07-23T04:29:59;5.50;;;4.18;;
63298;SDS011;54535;52.138;5.398;2022-07-23T04:32:26;8.32;;;4.47;;
63298;SDS011;54535;52.138;5.398;2022-07-23T04:34:54;6.88;;;4.30;;
63298;SDS011;54535;52.138;5.398;2022-07-23T04:37:20;8.70;;;5.03;;
63298;SDS011;54535;52.138;5.398;2022-07-23T04:39:47;6.20;;;4.50;;
63298;SDS011;54535;52.138;5.398;2022-07-23T04:42:14;7.67;;;4.67;;
63298;SDS011;54535;52.138;5.398;2022-07-23T04:44:41;8.30;;;4.72;;
63298;SDS011;54535;52.138;5.398;2022-07-23T04:47:08;5.70;;;4.22;;
63298;SDS011;54535;52.138;5.398;2022-07-23T04:49:38;8.07;;;4.97;;
63298;SDS011;54535;52.138;5.398;2022-07-23T04:52:05;7.63;;;5.05;;
63298;SDS011;54535;52.138;5.398;2022-07-23T04:54:32;6.90;;;4.63;;
63298;SDS011;54535;52.138;5.398;2022-07-23T04:56:59;5.55;;;4.13;;
63298;SDS011;54535;52.138;5.398;2022-07-23T04:59:26;7.53;;;4.20;;
63298;SDS011;54535;52.138;5.398;2022-07-23T05:01:58;6.35;;;4.57;;
63298;SDS011;54535;52.138;5.398;2022-07-23T05:04:25;6.00;;;4.20;;
63298;SDS011;54535;52.138;5.398;2022-07-23T05:06:52;6.25;;;4.03;;
63298;SDS011;54535;52.138;5.398;2022-07-23T05:09:19;5.97;;;4.10;;
63298;SDS011;54535;52.138;5.398;2022-07-23T05:11:46;5.90;;;4.13;;
63298;SDS011;54535;52.138;5.398;2022-07-23T05:14:12;6.23;;;3.90;;
63298;SDS011;54535;52.138;5.398;2022-07-23T05:16:40;5.80;;;3.83;;
63298;SDS011;54535;52.138;5.398;2022-07-23T05:19:12;7.78;;;4.18;;
63298;SDS011;54535;52.138;5.398;2022-07-23T05:21:40;7.80;;;3.90;;
63298;SDS011;54535;52.138;5.398;2022-07-23T05:24:07;6.10;;;3.70;;
63298;SDS011;54535;52.138;5.398;2022-07-23T05:26:34;5.63;;;3.67;;
63298;SDS011;54535;52.138;5.398;2022-07-23T05:29:01;5.72;;;3.38;;
63298;SDS011;54535;52.138;5.398;2022-07-23T05:31:28;5.47;;;3.78;;
63298;SDS011;54535;52.138;5.398;2022-07-23T05:33:56;4.50;;;3.22;;
63298;SDS011;54535;52.138;5.398;2022-07-23T05:36:23;4.85;;;3.50;;
63298;SDS011;54535;52.138;5.398;2022-07-23T05:38:53;6.22;;;3.50;;
63298;SDS011;54535;52.138;5.398;2022-07-23T05:41:20;5.87;;;3.43;;
63298;SDS011;54535;52.138;5.398;2022-07-23T05:43:46;5.10;;;3.40;;
63298;SDS011;54535;52.138;5.398;2022-07-23T05:46:14;7.80;;;4.40;;
63298;SDS011;54535;52.138;5.398;2022-07-23T05:48:44;6.78;;;3.90;;
63298;SDS011;54535;52.138;5.398;2022-07-23T05:54:12;7.00;;;3.45;;
63298;SDS011;54535;52.138;5.398;2022-07-23T05:56:39;4.43;;;3.03;;
63298;SDS011;54535;52.138;5.398;2022-07-23T05:59:06;5.10;;;3.03;;
63298;SDS011;54535;52.138;5.398;2022-07-23T06:01:33;6.03;;;3.17;;
63298;SDS011;54535;52.138;5.398;2022-07-23T06:04:09;7.43;;;3.63;;
63298;SDS011;54535;52.138;5.398;2022-07-23T06:06:40;6.03;;;3.65;;
63298;SDS011;54535;52.138;5.398;2022-07-23T06:09:09;7.53;;;4.00;;
63298;SDS011;54535;52.138;5.398;2022-07-23T06:11:37;6.80;;;4.30;;
63298;SDS011;54535;52.138;5.398;2022-07-23T06:16:45;8.43;;;4.05;;
63298;SDS011;54535;52.138;5.398;2022-07-23T06:19:12;7.23;;;4.03;;
63298;SDS011;54535;52.138;5.398;2022-07-23T06:21:39;8.07;;;3.72;;
63298;SDS011;54535;52.138;5.398;2022-07-23T06:24:15;8.50;;;3.85;;
63298;SDS011;54535;52.138;5.398;2022-07-23T06:26:42;7.93;;;4.13;;
63298;SDS011;54535;52.138;5.398;2022-07-23T06:29:09;7.38;;;4.30;;
63298;SDS011;54535;52.138;5.398;2022-07-23T06:31:36;8.50;;;3.90;;
63298;SDS011;54535;52.138;5.398;2022-07-23T06:34:03;7.75;;;3.80;;
63298;SDS011;54535;52.138;5.398;2022-07-23T06:36:30;8.57;;;3.83;;
63298;SDS011;54535;52.138;5.398;2022-07-23T06:38:56;5.80;;;3.60;;
63298;SDS011;54535;52.138;5.398;2022-07-23T06:41:23;6.90;;;3.70;;
63298;SDS011;54535;52.138;5.398;2022-07-23T06:43:50;6.80;;;3.90;;
63298;SDS011;54535;52.138;5.398;2022-07-23T06:46:19;7.65;;;3.80;;
63298;SDS011;54535;52.138;5.398;2022-07-23T06:48:48;6.85;;;3.00;;
63298;SDS011;54535;52.138;5.398;2022-07-23T06:51:15;6.67;;;3.50;;
63298;SDS011;54535;52.138;5.398;2022-07-23T06:53:42;5.00;;;2.30;;
63298;SDS011;54535;52.138;5.398;2022-07-23T06:56:09;5.77;;;2.67;;
63298;SDS011;54535;52.138;5.398;2022-07-23T06:58:38;5.55;;;2.72;;
63298;SDS011;54535;52.138;5.398;2022-07-23T07:01:05;8.00;;;3.05;;
63298;SDS011;54535;52.138;5.398;2022-07-23T07:03:32;6.10;;;2.78;;
63298;SDS011;54535;52.138;5.398;2022-07-23T07:06:00;4.90;;;2.47;;
63298;SDS011;54535;52.138;5.398;2022-07-23T07:08:27;5.65;;;3.28;;
63298;SDS011;54535;52.138;5.398;2022-07-23T07:10:55;5.97;;;2.80;;
63298;SDS011;54535;52.138;5.398;2022-07-23T07:13:22;4.18;;;2.00;;
63298;SDS011;54535;52.138;5.398;2022-07-23T07:15:49;6.47;;;2.20;;
63298;SDS011;54535;52.138;5.398;2022-07-23T07:18:17;3.20;;;1.73;;
63298;SDS011;54535;52.138;5.398;2022-07-23T07:20:44;4.55;;;2.42;;
63298;SDS011;54535;52.138;5.398;2022-07-23T07:23:12;5.38;;;2.08;;
63298;SDS011;54535;52.138;5.398;2022-07-23T07:25:41;3.22;;;2.10;;
63298;SDS011;54535;52.138;5.398;2022-07-23T07:28:09;5.95;;;2.88;;
63298;SDS011;54535;52.138;5.398;2022-07-23T07:30:36;4.80;;;3.20;;
63298;SDS011;54535;52.138;5.398;2022-07-23T07:33:03;6.38;;;2.70;;
63298;SDS011;54535;52.138;5.398;2022-07-23T07:35:30;6.20;;;2.75;;
63298;SDS011;54535;52.138;5.398;2022-07-23T07:38:00;4.55;;;2.28;;
63298;SDS011;54535;52.138;5.398;2022-07-23T07:40:27;6.82;;;2.80;;
63298;SDS011;54535;52.138;5.398;2022-07-23T07:42:59;5.13;;;2.38;;
63298;SDS011;54535;52.138;5.398;2022-07-23T07:45:28;5.47;;;2.42;;
63298;SDS011;54535;52.138;5.398;2022-07-23T07:47:56;7.88;;;2.90;;
63298;SDS011;54535;52.138;5.398;2022-07-23T07:52:51;5.05;;;2.85;;
63298;SDS011;54535;52.138;5.398;2022-07-23T07:57:46;5.28;;;2.22;;
63298;SDS011;54535;52.138;5.398;2022-07-23T08:00:21;5.60;;;2.60;;
63298;SDS011;54535;52.138;5.398;2022-07-23T08:02:51;4.45;;;2.67;;
63298;SDS011;54535;52.138;5.398;2022-07-23T08:05:20;4.22;;;2.63;;
63298;SDS011;54535;52.138;5.398;2022-07-23T08:07:53;8.35;;;2.83;;
63298;SDS011;54535;52.138;5.398;2022-07-23T08:10:21;6.05;;;2.47;;
63298;SDS011;54535;52.138;5.398;2022-07-23T08:12:48;7.40;;;2.70;;
63298;SDS011;54535;52.138;5.398;2022-07-23T08:15:19;5.00;;;2.50;;
63298;SDS011;54535;52.138;5.398;2022-07-23T08:17:47;4.55;;;2.33;;
63298;SDS011;54535;52.138;5.398;2022-07-23T08:22:52;4.05;;;2.42;;
63298;SDS011;54535;52.138;5.398;2022-07-23T08:25:29;4.75;;;2.60;;
63298;SDS011;54535;52.138;5.398;2022-07-23T08:27:58;3.67;;;2.28;;
63298;SDS011;54535;52.138;5.398;2022-07-23T08:30:26;4.95;;;2.70;;
63298;SDS011;54535;52.138;5.398;2022-07-23T08:32:58;6.50;;;2.90;;
63298;SDS011;54535;52.138;5.398;2022-07-23T08:35:37;4.55;;;2.10;;
63298;SDS011;54535;52.138;5.398;2022-07-23T08:38:06;3.03;;;1.95;;
63298;SDS011;54535;52.138;5.398;2022-07-23T08:40:35;5.53;;;2.20;;
63298;SDS011;54535;52.138;5.398;2022-07-23T08:43:10;4.43;;;2.50;;
63298;SDS011;54535;52.138;5.398;2022-07-23T08:45:39;3.05;;;2.00;;
63298;SDS011;54535;52.138;5.398;2022-07-23T08:48:08;5.25;;;2.20;;
63298;SDS011;54535;52.138;5.398;2022-07-23T08:50:39;6.32;;;2.50;;
63298;SDS011;54535;52.138;5.398;2022-07-23T08:53:09;4.32;;;2.42;;
63298;SDS011;54535;52.138;5.398;2022-07-23T08:55:36;5.82;;;2.40;;
63298;SDS011;54535;52.138;5.398;2022-07-23T08:58:03;4.13;;;2.22;;
63298;SDS011;54535;52.138;5.398;2022-07-23T09:00:30;3.35;;;1.90;;
63298;SDS011;54535;52.138;5.398;2022-07-23T09:02:58;3.35;;;1.90;;
63298;SDS011;54535;52.138;5.398;2022-07-23T09:05:25;5.13;;;1.80;;
63298;SDS011;54535;52.138;5.398;2022-07-23T09:10:45;3.38;;;1.98;;
63298;SDS011;54535;52.138;5.398;2022-07-23T09:13:26;2.78;;;1.77;;
63298;SDS011;54535;52.138;5.398;2022-07-23T09:23:52;3.15;;;2.00;;
63298;SDS011;54535;52.138;5.398;2022-07-23T09:26:22;5.38;;;2.30;;
63298;SDS011;54535;52.138;5.398;2022-07-23T09:29:10;4.90;;;2.65;;
63298;SDS011;54535;52.138;5.398;2022-07-23T09:34:15;3.90;;;2.17;;
63298;SDS011;54535;52.138;5.398;2022-07-23T09:36:46;6.50;;;2.30;;
63298;SDS011;54535;52.138;5.398;2022-07-23T09:39:14;2.60;;;2.03;;
63298;SDS011;54535;52.138;5.398;2022-07-23T09:41:44;4.78;;;1.90;;
63298;SDS011;54535;52.138;5.398;2022-07-23T09:44:13;5.78;;;2.60;;
63298;SDS011;54535;52.138;5.398;2022-07-23T09:46:43;3.75;;;1.98;;
63298;SDS011;54535;52.138;5.398;2022-07-23T09:49:20;4.15;;;2.30;;
63298;SDS011;54535;52.138;5.398;2022-07-23T09:51:56;2.67;;;2.05;;
63298;SDS011;54535;52.138;5.398;2022-07-23T09:54:34;4.13;;;1.90;;
63298;SDS011;54535;52.138;5.398;2022-07-23T09:57:07;2.88;;;1.80;;
63298;SDS011;54535;52.138;5.398;2022-07-23T09:59:43;4.22;;;2.00;;
63298;SDS011;54535;52.138;5.398;2022-07-23T10:02:13;5.13;;;2.25;;
63298;SDS011;54535;52.138;5.398;2022-07-23T10:04:58;3.95;;;1.73;;
63298;SDS011;54535;52.138;5.398;2022-07-23T10:07:47;6.28;;;2.10;;
63298;SDS011;54535;52.138;5.398;2022-07-23T10:10:38;3.22;;;1.70;;
63298;SDS011;54535;52.138;5.398;2022-07-23T10:13:15;5.38;;;2.08;;
63298;SDS011;54535;52.138;5.398;2022-07-23T10:16:03;3.47;;;1.90;;
63298;SDS011;54535;52.138;5.398;2022-07-23T10:18:30;4.18;;;1.85;;
63298;SDS011;54535;52.138;5.398;2022-07-23T10:20:57;3.50;;;1.98;;
63298;SDS011;54535;52.138;5.398;2022-07-23T10:24:12;3.60;;;1.77;;
63298;SDS011;54535;52.138;5.398;2022-07-23T10:26:34;3.28;;;2.05;;
63298;SDS011;54535;52.138;5.398;2022-07-23T10:31:58;3.03;;;1.63;;
63298;SDS011;54535;52.138;5.398;2022-07-23T10:34:36;2.63;;;1.60;;
63298;SDS011;54535;52.138;5.398;2022-07-23T10:42:49;4.72;;;2.08;;
63298;SDS011;54535;52.138;5.398;2022-07-23T10:45:23;6.57;;;3.70;;
63298;SDS011;54535;52.138;5.398;2022-07-23T10:47:55;5.28;;;2.10;;
63298;SDS011;54535;52.138;5.398;2022-07-23T10:50:37;5.15;;;2.20;;
63298;SDS011;54535;52.138;5.398;2022-07-23T10:53:12;3.60;;;1.95;;
63298;SDS011;54535;52.138;5.398;2022-07-23T10:55:44;3.92;;;2.25;;
63298;SDS011;54535;52.138;5.398;2022-07-23T10:58:19;2.25;;;1.70;;
63298;SDS011;54535;52.138;5.398;2022-07-23T11:00:49;5.85;;;2.08;;
63298;SDS011;54535;52.138;5.398;2022-07-23T11:03:35;4.32;;;2.08;;
63298;SDS011;54535;52.138;5.398;2022-07-23T11:08:30;4.60;;;1.73;;
63298;SDS011;54535;52.138;5.398;2022-07-23T11:13:28;3.03;;;1.67;;
63298;SDS011;54535;52.138;5.398;2022-07-23T11:16:22;3.40;;;2.05;;
63298;SDS011;54535;52.138;5.398;2022-07-23T11:18:59;2.78;;;1.80;;
63298;SDS011;54535;52.138;5.398;2022-07-23T11:21:40;3.72;;;1.90;;
63298;SDS011;54535;52.138;5.398;2022-07-23T11:34:44;3.38;;;2.08;;
63298;SDS011;54535;52.138;5.398;2022-07-23T11:37:48;4.07;;;1.95;;
63298;SDS011;54535;52.138;5.398;2022-07-23T11:40:09;2.75;;;1.75;;
63298;SDS011;54535;52.138;5.398;2022-07-23T11:42:38;3.88;;;2.17;;
63298;SDS011;54535;52.138;5.398;2022-07-23T11:45:07;4.13;;;2.30;;
63298;SDS011;54535;52.138;5.398;2022-07-23T11:47:34;4.63;;;2.58;;
63298;SDS011;54535;52.138;5.398;2022-07-23T11:50:02;6.22;;;2.75;;
63298;SDS011;54535;52.138;5.398;2022-07-23T11:52:31;5.38;;;2.50;;
63298;SDS011;54535;52.138;5.398;2022-07-23T11:54:59;7.53;;;2.42;;
63298;SDS011;54535;52.138;5.398;2022-07-23T11:57:40;4.63;;;2.63;;
63298;SDS011;54535;52.138;5.398;2022-07-23T12:02:41;6.55;;;2.97;;
63298;SDS011;54535;52.138;5.398;2022-07-23T12:05:14;4.68;;;2.38;;
63298;SDS011;54535;52.138;5.398;2022-07-23T12:07:53;4.18;;;2.47;;
63298;SDS011;54535;52.138;5.398;2022-07-23T12:12:53;4.88;;;2.50;;
63298;SDS011;54535;52.138;5.398;2022-07-23T12:15:25;3.20;;;2.10;;
63298;SDS011;54535;52.138;5.398;2022-07-23T12:18:03;3.42;;;2.10;;
63298;SDS011;54535;52.138;5.398;2022-07-23T12:20:32;5.10;;;2.30;;
63298;SDS011;54535;52.138;5.398;2022-07-23T12:23:02;4.63;;;2.00;;
63298;SDS011;54535;52.138;5.398;2022-07-23T12:25:32;3.78;;;2.30;;
63298;SDS011;54535;52.138;5.398;2022-07-23T12:28:07;4.20;;;2.20;;
63298;SDS011;54535;52.138;5.398;2022-07-23T12:30:43;3.92;;;2.30;;
63298;SDS011;54535;52.138;5.398;2022-07-23T12:33:22;4.07;;;2.00;;
63298;SDS011;54535;52.138;5.398;2022-07-23T12:35:50;3.88;;;2.10;;
63298;SDS011;54535;52.138;5.398;2022-07-23T12:38:20;4.78;;;2.13;;
63298;SDS011;54535;52.138;5.398;2022-07-23T12:40:49;5.57;;;2.25;;
63298;SDS011;54535;52.138;5.398;2022-07-23T12:43:24;5.78;;;2.28;;
63298;SDS011;54535;52.138;5.398;2022-07-23T12:45:53;5.78;;;2.20;;
63298;SDS011;54535;52.138;5.398;2022-07-23T12:51:20;5.28;;;2.30;;
63298;SDS011;54535;52.138;5.398;2022-07-23T12:53:52;2.45;;;1.95;;
63298;SDS011;54535;52.138;5.398;2022-07-23T12:56:21;3.72;;;2.17;;
63298;SDS011;54535;52.138;5.398;2022-07-23T12:58:56;2.70;;;2.15;;
63298;SDS011;54535;52.138;5.398;2022-07-23T13:01:30;3.47;;;1.92;;
63298;SDS011;54535;52.138;5.398;2022-07-23T13:04:04;3.53;;;2.40;;
63298;SDS011;54535;52.138;5.398;2022-07-23T13:06:40;4.75;;;2.03;;
63298;SDS011;54535;52.138;5.398;2022-07-23T13:09:11;4.35;;;2.25;;
63298;SDS011;54535;52.138;5.398;2022-07-23T13:11:41;4.03;;;2.22;;
63298;SDS011;54535;52.138;5.398;2022-07-23T13:14:09;3.28;;;2.00;;
63298;SDS011;54535;52.138;5.398;2022-07-23T13:16:37;3.95;;;2.00;;
63298;SDS011;54535;52.138;5.398;2022-07-23T13:19:05;3.13;;;1.92;;
63298;SDS011;54535;52.138;5.398;2022-07-23T13:21:37;3.05;;;2.10;;
63298;SDS011;54535;52.138;5.398;2022-07-23T13:24:05;4.95;;;2.08;;
63298;SDS011;54535;52.138;5.398;2022-07-23T13:26:53;2.90;;;1.80;;
63298;SDS011;54535;52.138;5.398;2022-07-23T13:29:20;3.35;;;2.00;;
63298;SDS011;54535;52.138;5.398;2022-07-23T13:31:47;5.00;;;2.63;;
63298;SDS011;54535;52.138;5.398;2022-07-23T13:34:16;3.33;;;2.10;;
63298;SDS011;54535;52.138;5.398;2022-07-23T13:36:43;4.85;;;2.15;;
63298;SDS011;54535;52.138;5.398;2022-07-23T13:39:11;4.72;;;2.20;;
63298;SDS011;54535;52.138;5.398;2022-07-23T13:41:38;3.97;;;2.30;;
63298;SDS011;54535;52.138;5.398;2022-07-23T13:46:32;3.50;;;2.40;;
63298;SDS011;54535;52.138;5.398;2022-07-23T13:49:00;2.90;;;2.05;;
63298;SDS011;54535;52.138;5.398;2022-07-23T13:51:28;3.50;;;2.03;;
63298;SDS011;54535;52.138;5.398;2022-07-23T13:53:55;4.93;;;2.22;;
63298;SDS011;54535;52.138;5.398;2022-07-23T13:56:25;4.43;;;2.15;;
63298;SDS011;54535;52.138;5.398;2022-07-23T13:58:52;5.10;;;2.50;;
63298;SDS011;54535;52.138;5.398;2022-07-23T14:01:19;3.70;;;2.22;;
63298;SDS011;54535;52.138;5.398;2022-07-23T14:03:49;3.60;;;2.20;;
63298;SDS011;54535;52.138;5.398;2022-07-23T14:08:54;6.72;;;2.35;;
63298;SDS011;54535;52.138;5.398;2022-07-23T14:11:21;5.43;;;2.22;;
63298;SDS011;54535;52.138;5.398;2022-07-23T14:13:48;4.03;;;2.28;;
63298;SDS011;54535;52.138;5.398;2022-07-23T14:18:43;4.50;;;2.45;;
63298;SDS011;54535;52.138;5.398;2022-07-23T14:21:09;4.18;;;2.25;;
63298;SDS011;54535;52.138;5.398;2022-07-23T14:23:36;2.22;;;1.90;;
63298;SDS011;54535;52.138;5.398;2022-07-23T14:26:04;3.50;;;2.15;;
63298;SDS011;54535;52.138;5.398;2022-07-23T14:28:34;3.17;;;2.15;;
63298;SDS011;54535;52.138;5.398;2022-07-23T14:31:01;3.00;;;2.05;;
63298;SDS011;54535;52.138;5.398;2022-07-23T14:33:28;4.60;;;2.10;;
63298;SDS011;54535;52.138;5.398;2022-07-23T14:38:22;3.85;;;2.20;;
63298;SDS011;54535;52.138;5.398;2022-07-23T14:40:49;3.35;;;2.40;;
63298;SDS011;54535;52.138;5.398;2022-07-23T14:43:16;7.50;;;2.58;;
63298;SDS011;54535;52.138;5.398;2022-07-23T14:45:42;3.47;;;2.08;;
63298;SDS011;54535;52.138;5.398;2022-07-23T14:48:14;3.08;;;2.45;;
63298;SDS011;54535;52.138;5.398;2022-07-23T14:50:41;4.70;;;2.30;;
63298;SDS011;54535;52.138;5.398;2022-07-23T14:53:08;3.35;;;2.53;;
63298;SDS011;54535;52.138;5.398;2022-07-23T14:55:35;4.50;;;2.33;;
63298;SDS011;54535;52.138;5.398;2022-07-23T14:58:04;3.45;;;2.30;;
63298;SDS011;54535;52.138;5.398;2022-07-23T15:00:32;2.88;;;2.10;;
63298;SDS011;54535;52.138;5.398;2022-07-23T15:02:59;4.32;;;2.47;;
63298;SDS011;54535;52.138;5.398;2022-07-23T15:05:26;3.05;;;2.20;;
63298;SDS011;54535;52.138;5.398;2022-07-23T15:07:55;4.32;;;2.17;;
63298;SDS011;54535;52.138;5.398;2022-07-23T15:10:22;4.95;;;2.40;;
63298;SDS011;54535;52.138;5.398;2022-07-23T15:12:49;4.60;;;2.33;;
63298;SDS011;54535;52.138;5.398;2022-07-23T15:15:16;4.80;;;2.30;;
63298;SDS011;54535;52.138;5.398;2022-07-23T15:17:44;2.97;;;2.50;;
63298;SDS011;54535;52.138;5.398;2022-07-23T15:20:10;4.35;;;2.50;;
63298;SDS011;54535;52.138;5.398;2022-07-23T15:22:40;6.05;;;2.72;;
63298;SDS011;54535;52.138;5.398;2022-07-23T15:25:07;3.33;;;2.20;;
63298;SDS011;54535;52.138;5.398;2022-07-23T15:27:37;3.20;;;2.08;;
63298;SDS011;54535;52.138;5.398;2022-07-23T15:30:05;7.10;;;2.60;;
63298;SDS011;54535;52.138;5.398;2022-07-23T15:32:33;4.03;;;2.30;;
63298;SDS011;54535;52.138;5.398;2022-07-23T15:35:00;4.07;;;2.30;;
63298;SDS011;54535;52.138;5.398;2022-07-23T15:37:28;4.47;;;2.58;;
63298;SDS011;54535;52.138;5.398;2022-07-23T15:39:55;4.53;;;2.50;;
63298;SDS011;54535;52.138;5.398;2022-07-23T15:42:22;6.78;;;2.80;;
63298;SDS011;54535;52.138;5.398;2022-07-23T15:44:50;5.38;;;2.95;;
63298;SDS011;54535;52.138;5.398;2022-07-23T15:47:17;6.45;;;3.10;;
63298;SDS011;54535;52.138;5.398;2022-07-23T15:49:45;4.57;;;2.53;;
63298;SDS011;54535;52.138;5.398;2022-07-23T15:52:12;3.08;;;2.30;;
63298;SDS011;54535;52.138;5.398;2022-07-23T15:57:06;6.05;;;2.40;;
63298;SDS011;54535;52.138;5.398;2022-07-23T15:59:34;3.70;;;2.40;;
63298;SDS011;54535;52.138;5.398;2022-07-23T16:02:01;4.55;;;2.70;;
63298;SDS011;54535;52.138;5.398;2022-07-23T16:04:28;5.00;;;2.42;;
63298;SDS011;54535;52.138;5.398;2022-07-23T16:06:55;5.88;;;2.63;;
63298;SDS011;54535;52.138;5.398;2022-07-23T16:09:22;2.50;;;2.20;;
63298;SDS011;54535;52.138;5.398;2022-07-23T16:11:49;5.43;;;2.75;;
63298;SDS011;54535;52.138;5.398;2022-07-23T16:14:16;4.28;;;2.58;;
63298;SDS011;54535;52.138;5.398;2022-07-23T16:16:43;3.80;;;2.50;;
63298;SDS011;54535;52.138;5.398;2022-07-23T16:19:10;4.97;;;2.50;;
63298;SDS011;54535;52.138;5.398;2022-07-23T16:21:37;5.45;;;2.42;;